sensor_id;sensor_type;location;lat;lon;timestamp;P1;P2;P0
78512;PMS5003;67809;55.034;73.462;2023-07-13T17:24:15;45.00;38.00;26.00
78512;PMS5003;67809;55.034;73.462;2023-07-13T17:26:43;41.00;35.00;25.00
78512;PMS5003;67809;55.034;73.462;2023-07-13T17:29:11;37.00;32.00;22.00
78512;PMS5003;67809;55.034;73.462;2023-07-13T17:31:37;33.00;29.00;20.00
78512;PMS5003;67809;55.034;73.462;2023-07-13T17:34:03;31.75;26.75;19.00
78512;PMS5003;67809;55.034;73.462;2023-07-13T17:36:31;32.00;26.00;18.75
78512;PMS5003;67809;55.034;73.462;2023-07-13T17:38:59;41.00;35.00;24.00
78512;PMS5003;67809;55.034;73.462;2023-07-13T17:41:25;44.50;37.75;25.00
78512;PMS5003;67809;55.034;73.462;2023-07-13T17:43:52;45.25;37.75;25.00
78512;PMS5003;67809;55.034;73.462;2023-07-13T17:46:24;41.75;35.00;23.75
78512;PMS5003;67809;55.034;73.462;2023-07-13T17:48:53;32.75;27.75;19.00
78512;PMS5003;67809;55.034;73.462;2023-07-13T17:51:20;37.00;32.00;22.00
78512;PMS5003;67809;55.034;73.462;2023-07-13T17:53:48;29.00;25.00;17.00
78512;PMS5003;67809;55.034;73.462;2023-07-13T17:56:14;34.50;29.75;21.25
78512;PMS5003;67809;55.034;73.462;2023-07-13T17:58:44;30.75;26.25;18.25
78512;PMS5003;67809;55.034;73.462;2023-07-13T18:01:15;29.00;25.50;16.50
78512;PMS5003;67809;55.034;73.462;2023-07-13T18:03:42;25.00;23.00;16.00
78512;PMS5003;67809;55.034;73.462;2023-07-13T18:06:15;26.00;23.00;16.00
78512;PMS5003;67809;55.034;73.462;2023-07-13T18:08:58;22.75;20.75;15.00
78512;PMS5003;67809;55.034;73.462;2023-07-13T18:11:25;23.00;22.00;16.00
78512;PMS5003;67809;55.034;73.462;2023-07-13T18:13:52;23.33;21.00;14.67
78512;PMS5003;67809;55.034;73.462;2023-07-13T18:16:22;22.00;20.00;14.00
78512;PMS5003;67809;55.034;73.462;2023-07-13T18:18:55;21.50;20.00;15.00
78512;PMS5003;67809;55.034;73.462;2023-07-13T18:21:22;25.00;22.50;15.00
78512;PMS5003;67809;55.034;73.462;2023-07-13T18:23:49;29.00;26.00;18.00
78512;PMS5003;67809;55.034;73.462;2023-07-13T18:26:17;37.00;31.25;22.00
78512;PMS5003;67809;55.034;73.462;2023-07-13T18:28:46;48.50;40.00;27.00
78512;PMS5003;67809;55.034;73.462;2023-07-13T18:31:17;36.00;31.00;22.00
78512;PMS5003;67809;55.034;73.462;2023-07-13T18:33:44;32.00;27.67;19.00
78512;PMS5003;67809;55.034;73.462;2023-07-13T18:36:15;33.00;28.00;19.75
78512;PMS5003;67809;55.034;73.462;2023-07-13T18:38:42;31.00;27.00;19.00
78512;PMS5003;67809;55.034;73.462;2023-07-13T18:41:12;28.25;26.00;18.00
78512;PMS5003;67809;55.034;73.462;2023-07-13T18:43:40;25.00;22.00;15.00
78512;PMS5003;67809;55.034;73.462;2023-07-13T18:46:13;21.25;21.00;15.00
78512;PMS5003;67809;55.034;73.462;2023-07-13T18:48:43;25.00;22.00;16.00
78512;PMS5003;67809;55.034;73.462;2023-07-13T18:51:10;25.00;23.00;16.00
78512;PMS5003;67809;55.034;73.462;2023-07-13T18:53:40;122.75;105.00;65.00
78512;PMS5003;67809;55.034;73.462;2023-07-13T18:56:06;55.50;45.25;28.75
78512;PMS5003;67809;55.034;73.462;2023-07-13T18:58:33;64.50;52.25;33.50
78512;PMS5003;67809;55.034;73.462;2023-07-13T19:01:00;62.00;50.00;31.00
78512;PMS5003;67809;55.034;73.462;2023-07-13T19:03:31;64.25;52.75;33.75
78512;PMS5003;67809;55.034;73.462;2023-07-13T19:05:58;61.67;49.67;31.67
78512;PMS5003;67809;55.034;73.462;2023-07-13T19:08:25;23.25;21.00;15.00
78512;PMS5003;67809;55.034;73.462;2023-07-13T19:10:51;29.00;25.00;17.00
78512;PMS5003;67809;55.034;73.462;2023-07-13T19:13:25;23.00;20.00;14.00
78512;PMS5003;67809;55.034;73.462;2023-07-13T19:15:54;21.00;19.50;14.00
78512;PMS5003;67809;55.034;73.462;2023-07-13T19:18:21;19.00;17.00;12.00
78512;PMS5003;67809;55.034;73.462;2023-07-13T19:20:48;28.00;24.00;15.00
78512;PMS5003;67809;55.034;73.462;2023-07-13T19:25:45;21.00;19.25;14.00
78512;PMS5003;67809;55.034;73.462;2023-07-13T19:28:53;23.00;21.00;15.00
78512;PMS5003;67809;55.034;73.462;2023-07-13T19:31:00;22.00;20.00;14.00
78512;PMS5003;67809;55.034;73.462;2023-07-13T19:33:26;23.00;20.00;14.00
78512;PMS5003;67809;55.034;73.462;2023-07-13T19:35:53;23.00;20.75;14.00
78512;PMS5003;67809;55.034;73.462;2023-07-13T19:38:20;22.00;20.00;14.00
78512;PMS5003;67809;55.034;73.462;2023-07-13T19:40:47;23.00;20.00;13.00
78512;PMS5003;67809;55.034;73.462;2023-07-13T19:43:14;21.00;18.50;13.00
78512;PMS5003;67809;55.034;73.462;2023-07-13T19:45:40;22.50;20.00;14.00
78512;PMS5003;67809;55.034;73.462;2023-07-13T19:48:06;21.25;20.00;14.00
78512;PMS5003;67809;55.034;73.462;2023-07-13T19:50:36;20.00;18.00;13.00
78512;PMS5003;67809;55.034;73.462;2023-07-13T19:53:03;21.75;19.00;12.75
78512;PMS5003;67809;55.034;73.462;2023-07-13T19:55:29;21.00;18.00;13.00
78512;PMS5003;67809;55.034;73.462;2023-07-13T19:57:55;19.25;18.25;13.75
78512;PMS5003;67809;55.034;73.462;2023-07-13T20:00:23;19.75;18.00;12.00
78512;PMS5003;67809;55.034;73.462;2023-07-13T20:02:50;21.00;18.00;12.75
78512;PMS5003;67809;55.034;73.462;2023-07-13T20:05:17;19.00;17.00;13.00
78512;PMS5003;67809;55.034;73.462;2023-07-13T20:07:44;17.00;15.75;11.50
78512;PMS5003;67809;55.034;73.462;2023-07-13T20:12:42;18.00;16.50;11.00
78512;PMS5003;67809;55.034;73.462;2023-07-13T20:15:17;20.33;18.67;12.67
78512;PMS5003;67809;55.034;73.462;2023-07-13T20:17:44;19.50;17.00;13.00
78512;PMS5003;67809;55.034;73.462;2023-07-13T20:20:16;17.00;16.00;11.00
78512;PMS5003;67809;55.034;73.462;2023-07-13T20:22:44;17.75;16.00;11.00
78512;PMS5003;67809;55.034;73.462;2023-07-13T20:25:19;18.00;17.00;12.00
78512;PMS5003;67809;55.034;73.462;2023-07-13T20:27:46;17.25;16.00;12.00
78512;PMS5003;67809;55.034;73.462;2023-07-13T20:30:12;17.00;15.00;11.00
78512;PMS5003;67809;55.034;73.462;2023-07-13T20:32:38;16.50;14.50;10.75
78512;PMS5003;67809;55.034;73.462;2023-07-13T20:35:06;17.00;16.00;12.00
78512;PMS5003;67809;55.034;73.462;2023-07-13T20:37:44;18.00;16.00;11.50
78512;PMS5003;67809;55.034;73.462;2023-07-13T20:40:14;17.25;15.00;11.00
78512;PMS5003;67809;55.034;73.462;2023-07-13T20:42:41;16.00;15.00;11.00
78512;PMS5003;67809;55.034;73.462;2023-07-13T20:45:08;16.00;15.00;11.00
78512;PMS5003;67809;55.034;73.462;2023-07-13T20:47:35;16.00;14.00;11.00
78512;PMS5003;67809;55.034;73.462;2023-07-13T20:50:02;18.00;16.00;12.00
78512;PMS5003;67809;55.034;73.462;2023-07-13T20:52:28;18.50;17.50;12.50
78512;PMS5003;67809;55.034;73.462;2023-07-13T20:54:54;19.00;17.00;11.00
78512;PMS5003;67809;55.034;73.462;2023-07-13T20:57:20;19.00;18.00;12.00
78512;PMS5003;67809;55.034;73.462;2023-07-13T20:59:51;17.00;15.00;11.00
78512;PMS5003;67809;55.034;73.462;2023-07-13T21:04:51;16.00;15.00;10.50
78512;PMS5003;67809;55.034;73.462;2023-07-13T21:07:22;16.00;15.00;11.00
78512;PMS5003;67809;55.034;73.462;2023-07-13T21:09:48;15.75;14.25;9.75
78512;PMS5003;67809;55.034;73.462;2023-07-13T21:12:14;16.00;15.00;10.00
78512;PMS5003;67809;55.034;73.462;2023-07-13T21:14:40;19.75;17.00;12.00
78512;PMS5003;67809;55.034;73.462;2023-07-13T21:17:09;16.00;15.00;11.00
78512;PMS5003;67809;55.034;73.462;2023-07-13T21:19:36;16.75;15.25;11.00
78512;PMS5003;67809;55.034;73.462;2023-07-13T21:22:02;19.00;18.00;12.25
78512;PMS5003;67809;55.034;73.462;2023-07-13T21:24:28;17.00;15.00;10.25
78512;PMS5003;67809;55.034;73.462;2023-07-13T21:26:54;19.00;17.00;12.00
78512;PMS5003;67809;55.034;73.462;2023-07-13T21:29:22;20.00;18.50;13.00
78512;PMS5003;67809;55.034;73.462;2023-07-13T21:31:48;19.00;17.25;14.00
78512;PMS5003;67809;55.034;73.462;2023-07-13T21:34:15;20.00;18.00;13.00
78512;PMS5003;67809;55.034;73.462;2023-07-13T21:36:42;19.25;17.00;12.00
78512;PMS5003;67809;55.034;73.462;2023-07-13T21:39:10;19.25;18.00;12.50
78512;PMS5003;67809;55.034;73.462;2023-07-13T21:41:38;25.00;22.00;15.00
78512;PMS5003;67809;55.034;73.462;2023-07-13T21:44:28;23.00;20.00;14.00
78512;PMS5003;67809;55.034;73.462;2023-07-13T21:46:50;26.00;22.25;14.00
78512;PMS5003;67809;55.034;73.462;2023-07-13T21:49:17;21.50;19.00;14.00
78512;PMS5003;67809;55.034;73.462;2023-07-13T21:51:43;20.00;18.00;14.00
78512;PMS5003;67809;55.034;73.462;2023-07-13T21:54:19;21.00;19.00;13.00
78512;PMS5003;67809;55.034;73.462;2023-07-13T21:56:46;20.33;18.00;12.67
78512;PMS5003;67809;55.034;73.462;2023-07-13T21:59:14;21.00;19.00;14.00
78512;PMS5003;67809;55.034;73.462;2023-07-13T22:01:41;19.00;17.25;12.00
78512;PMS5003;67809;55.034;73.462;2023-07-13T22:04:09;19.00;18.00;13.00
78512;PMS5003;67809;55.034;73.462;2023-07-13T22:06:38;20.00;18.00;13.00
78512;PMS5003;67809;55.034;73.462;2023-07-13T22:09:04;22.00;20.00;14.00
78512;PMS5003;67809;55.034;73.462;2023-07-13T22:11:32;22.25;20.00;14.00
78512;PMS5003;67809;55.034;73.462;2023-07-13T22:13:58;22.00;20.00;15.00
78512;PMS5003;67809;55.034;73.462;2023-07-13T22:16:26;22.00;21.00;15.00
78512;PMS5003;67809;55.034;73.462;2023-07-13T22:18:53;23.00;20.00;14.00
78512;PMS5003;67809;55.034;73.462;2023-07-13T22:21:20;22.25;19.00;14.00
78512;PMS5003;67809;55.034;73.462;2023-07-13T22:23:47;20.50;19.00;14.00
78512;PMS5003;67809;55.034;73.462;2023-07-13T22:26:23;20.00;18.00;13.00
78512;PMS5003;67809;55.034;73.462;2023-07-13T22:28:53;20.00;19.00;13.00
78512;PMS5003;67809;55.034;73.462;2023-07-13T22:31:21;21.25;19.75;14.00
78512;PMS5003;67809;55.034;73.462;2023-07-13T22:33:48;19.50;17.25;13.00
78512;PMS5003;67809;55.034;73.462;2023-07-13T22:36:15;20.00;18.00;13.00
78512;PMS5003;67809;55.034;73.462;2023-07-13T22:38:41;21.00;19.00;13.50
78512;PMS5003;67809;55.034;73.462;2023-07-13T22:41:17;20.00;18.00;12.00
78512;PMS5003;67809;55.034;73.462;2023-07-13T22:43:44;20.75;19.00;13.75
78512;PMS5003;67809;55.034;73.462;2023-07-13T22:46:13;20.00;18.00;12.00
78512;PMS5003;67809;55.034;73.462;2023-07-13T22:48:42;18.00;16.25;12.00
78512;PMS5003;67809;55.034;73.462;2023-07-13T22:51:11;19.00;17.00;12.00
78512;PMS5003;67809;55.034;73.462;2023-07-13T22:53:37;19.75;18.00;12.00
78512;PMS5003;67809;55.034;73.462;2023-07-13T22:56:04;19.00;16.00;12.00
78512;PMS5003;67809;55.034;73.462;2023-07-13T22:58:30;19.00;17.00;12.00
78512;PMS5003;67809;55.034;73.462;2023-07-13T23:00:57;19.00;18.00;13.00
78512;PMS5003;67809;55.034;73.462;2023-07-13T23:03:24;21.00;20.00;14.00
78512;PMS5003;67809;55.034;73.462;2023-07-13T23:05:51;18.00;17.20;12.80
78512;PMS5003;67809;55.034;73.462;2023-07-13T23:08:18;21.00;19.00;13.00
78512;PMS5003;67809;55.034;73.462;2023-07-13T23:10:46;20.00;18.00;13.00
78512;PMS5003;67809;55.034;73.462;2023-07-13T23:13:13;19.00;17.75;13.00
78512;PMS5003;67809;55.034;73.462;2023-07-13T23:15:40;22.00;20.50;15.00
78512;PMS5003;67809;55.034;73.462;2023-07-13T23:18:07;19.00;18.00;12.33
78512;PMS5003;67809;55.034;73.462;2023-07-13T23:20:35;20.50;17.75;12.00
78512;PMS5003;67809;55.034;73.462;2023-07-13T23:23:02;20.25;18.75;12.50
78512;PMS5003;67809;55.034;73.462;2023-07-13T23:25:29;21.75;19.25;13.50
78512;PMS5003;67809;55.034;73.462;2023-07-13T23:27:58;21.00;18.50;13.00
78512;PMS5003;67809;55.034;73.462;2023-07-13T23:30:25;21.00;19.50;13.00
78512;PMS5003;67809;55.034;73.462;2023-07-13T23:32:53;25.00;22.00;15.00
78512;PMS5003;67809;55.034;73.462;2023-07-13T23:35:21;22.00;19.75;14.00
78512;PMS5003;67809;55.034;73.462;2023-07-13T23:37:49;23.00;20.00;13.00
78512;PMS5003;67809;55.034;73.462;2023-07-13T23:40:16;23.00;21.00;15.00
78512;PMS5003;67809;55.034;73.462;2023-07-13T23:42:43;25.00;23.00;16.00
78512;PMS5003;67809;55.034;73.462;2023-07-13T23:45:13;23.00;21.00;15.00
78512;PMS5003;67809;55.034;73.462;2023-07-13T23:47:41;22.67;20.33;15.00
78512;PMS5003;67809;55.034;73.462;2023-07-13T23:50:19;24.00;21.00;14.00
78512;PMS5003;67809;55.034;73.462;2023-07-13T23:52:46;23.00;20.50;15.00
78512;PMS5003;67809;55.034;73.462;2023-07-13T23:55:13;21.25;20.25;15.00
78512;PMS5003;67809;55.034;73.462;2023-07-13T23:57:40;23.00;21.00;15.00
